Time;durP1;ratioP1;P1;durP2;ratioP2;P2;SDS_P1;SDS_P2;PMS_P1;PMS_P2;Temp;Humidity;BMP_temperature;BMP_pressure;BME280_temperature;BME280_humidity;BME280_pressure;Samples;Min_cycle;Max_cycle;Signal;HPM_P1;HPM_P2
2023/08/21 00:00:08;;;;;;;15.73;3.50;;;;;;;;;;5008845;28;20049;-77
2023/08/21 00:02:34;;;;;;;3.85;2.78;;;;;;;;;;5008803;28;20580;-77
2023/08/21 00:05:00;;;;;;;7.57;3.10;;;;;;;;;;5007117;28;20044;-77
2023/08/21 00:07:26;;;;;;;5.82;2.97;;;;;;;;;;5009622;28;20088;-76
2023/08/21 00:09:52;;;;;;;3.67;2.78;;;;;;;;;;5011327;28;20405;-77
2023/08/21 00:12:18;;;;;;;2.67;2.47;;;;;;;;;;5006092;28;20040;-77
2023/08/21 00:14:45;;;;;;;6.18;2.90;;;;;;;;;;5010990;28;20048;-76
2023/08/21 00:17:11;;;;;;;4.05;2.78;;;;;;;;;;5008085;28;20059;-76
2023/08/21 00:19:37;;;;;;;6.15;2.50;;;;;;;;;;5007553;28;20533;-77
2023/08/21 00:22:03;;;;;;;5.03;2.85;;;;;;;;;;5008285;28;20057;-77
2023/08/21 00:24:29;;;;;;;3.17;2.60;;;;;;;;;;5006373;28;20042;-77
2023/08/21 00:26:55;;;;;;;4.07;2.60;;;;;;;;;;5006339;28;20481;-77
2023/08/21 00:29:21;;;;;;;5.68;2.72;;;;;;;;;;5009880;28;20072;-77
2023/08/21 00:31:47;;;;;;;3.30;2.78;;;;;;;;;;5009426;28;20045;-77
2023/08/21 00:34:13;;;;;;;4.03;3.20;;;;;;;;;;5007920;28;20127;-77
2023/08/21 00:36:39;;;;;;;6.68;4.40;;;;;;;;;;5005352;28;20045;-77
2023/08/21 00:39:06;;;;;;;7.45;5.45;;;;;;;;;;5003101;28;21617;-77
2023/08/21 00:41:34;;;;;;;9.80;5.15;;;;;;;;;;5002914;28;20053;-76
2023/08/21 00:44:00;;;;;;;9.05;4.55;;;;;;;;;;5006173;28;20060;-76
2023/08/21 00:46:26;;;;;;;7.47;3.78;;;;;;;;;;4988322;28;20068;-76
2023/08/21 00:48:52;;;;;;;6.75;3.10;;;;;;;;;;4988531;28;20041;-77
2023/08/21 00:51:19;;;;;;;4.47;3.20;;;;;;;;;;5004962;28;20045;-76
2023/08/21 00:53:45;;;;;;;6.75;3.40;;;;;;;;;;4989800;28;22149;-77
2023/08/21 00:56:11;;;;;;;9.38;3.60;;;;;;;;;;5005514;28;20041;-77
2023/08/21 00:58:37;;;;;;;5.40;3.35;;;;;;;;;;5011285;28;20978;-77
2023/08/21 01:01:04;;;;;;;7.63;3.63;;;;;;;;;;5025688;28;21762;-77
2023/08/21 01:03:31;;;;;;;12.13;4.18;;;;;;;;;;5022134;28;20123;-77
2023/08/21 01:05:57;;;;;;;9.73;4.07;;;;;;;;;;5010746;28;21572;-77
2023/08/21 01:08:30;;;;;;;12.60;4.03;;;;;;;;;;5009101;28;20089;-77
2023/08/21 01:10:59;;;;;;;6.13;3.50;;;;;;;;;;5010343;28;20045;-77
2023/08/21 01:13:40;;;;;;;9.55;3.63;;;;;;;;;;5031593;28;20037;-77
2023/08/21 01:16:07;;;;;;;9.50;4.47;;;;;;;;;;5031582;28;20493;-77
2023/08/21 01:18:35;;;;;;;7.35;3.95;;;;;;;;;;5014432;28;20056;-77
2023/08/21 01:21:04;;;;;;;8.63;3.67;;;;;;;;;;5014659;28;21500;-77
2023/08/21 01:23:37;;;;;;;8.27;3.47;;;;;;;;;;5014089;28;20044;-77
2023/08/21 01:26:03;;;;;;;7.55;3.90;;;;;;;;;;5033016;28;20260;-77
2023/08/21 01:28:30;;;;;;;8.82;3.63;;;;;;;;;;5030860;28;20211;-77
2023/08/21 01:31:00;;;;;;;9.25;4.10;;;;;;;;;;5014353;28;20048;-77
2023/08/21 01:33:27;;;;;;;10.40;4.40;;;;;;;;;;5012196;28;20041;-77
2023/08/21 01:35:53;;;;;;;9.30;4.05;;;;;;;;;;5015268;28;20049;-77
2023/08/21 01:38:19;;;;;;;10.57;4.13;;;;;;;;;;5032751;28;20041;-77
2023/08/21 01:40:47;;;;;;;13.45;5.00;;;;;;;;;;5011773;28;20141;-77
2023/08/21 01:43:13;;;;;;;8.60;4.43;;;;;;;;;;5013205;28;20649;-77
2023/08/21 01:45:39;;;;;;;12.60;4.65;;;;;;;;;;5015853;28;20041;-77
2023/08/21 01:48:06;;;;;;;11.50;4.35;;;;;;;;;;4992618;28;20625;-77
2023/08/21 01:50:32;;;;;;;8.93;4.25;;;;;;;;;;4990386;28;20044;-77
2023/08/21 01:52:58;;;;;;;16.95;5.03;;;;;;;;;;5007050;28;20780;-77
2023/08/21 01:55:24;;;;;;;8.30;4.20;;;;;;;;;;4992250;28;20041;-77
2023/08/21 01:57:50;;;;;;;11.43;5.10;;;;;;;;;;5016110;28;20036;-77
2023/08/21 02:00:16;;;;;;;8.13;4.93;;;;;;;;;;5007515;28;20645;-77
2023/08/21 02:02:42;;;;;;;9.25;3.88;;;;;;;;;;5009001;28;20600;-77
2023/08/21 02:05:08;;;;;;;9.15;4.47;;;;;;;;;;5009902;28;20049;-77
2023/08/21 02:07:34;;;;;;;8.30;3.78;;;;;;;;;;5009460;28;20040;-77
2023/08/21 02:10:00;;;;;;;12.23;5.25;;;;;;;;;;5012793;28;20049;-77
2023/08/21 02:12:26;;;;;;;11.05;4.72;;;;;;;;;;5008976;28;20123;-77
2023/08/21 02:14:52;;;;;;;10.50;4.32;;;;;;;;;;5011255;28;20032;-77
2023/08/21 02:17:18;;;;;;;6.70;4.35;;;;;;;;;;5010064;28;20049;-77
2023/08/21 02:19:45;;;;;;;10.45;4.80;;;;;;;;;;5009166;28;20575;-77
2023/08/21 02:22:11;;;;;;;6.85;4.32;;;;;;;;;;5027239;28;20476;-77
2023/08/21 02:24:38;;;;;;;8.30;4.38;;;;;;;;;;5012400;28;20051;-77
2023/08/21 02:27:04;;;;;;;9.32;4.65;;;;;;;;;;5009648;28;20807;-77
2023/08/21 02:29:30;;;;;;;7.68;4.63;;;;;;;;;;4998315;28;20472;-77
2023/08/21 02:31:56;;;;;;;11.52;4.60;;;;;;;;;;5028393;28;20036;-77
2023/08/21 02:34:22;;;;;;;10.65;4.75;;;;;;;;;;5029843;28;20136;-77
2023/08/21 02:36:48;;;;;;;17.27;4.43;;;;;;;;;;5009770;28;20048;-76
2023/08/21 02:39:14;;;;;;;10.15;4.25;;;;;;;;;;5011202;28;20044;-77
2023/08/21 02:41:40;;;;;;;6.90;4.40;;;;;;;;;;5015264;28;20052;-77
2023/08/21 02:44:06;;;;;;;9.05;4.78;;;;;;;;;;5026389;28;20044;-77
2023/08/21 02:46:34;;;;;;;11.65;4.47;;;;;;;;;;5008293;28;20732;-76
2023/08/21 02:49:00;;;;;;;8.82;4.65;;;;;;;;;;5014828;28;20500;-76
2023/08/21 02:51:26;;;;;;;6.53;3.78;;;;;;;;;;5011273;28;20048;-77
2023/08/21 02:53:52;;;;;;;11.23;4.15;;;;;;;;;;5010921;28;20067;-77
2023/08/21 02:56:18;;;;;;;9.95;4.78;;;;;;;;;;4998400;28;20102;-77
2023/08/21 02:58:44;;;;;;;8.32;4.55;;;;;;;;;;5011878;28;20424;-77
2023/08/21 03:01:10;;;;;;;9.27;4.45;;;;;;;;;;5009936;28;20171;-77
2023/08/21 03:03:36;;;;;;;11.15;4.55;;;;;;;;;;5011872;28;20057;-77
2023/08/21 03:06:02;;;;;;;7.13;4.28;;;;;;;;;;5026954;28;20045;-77
2023/08/21 03:08:28;;;;;;;7.78;4.53;;;;;;;;;;4992891;28;20048;-77
2023/08/21 03:10:55;;;;;;;9.30;4.40;;;;;;;;;;5027094;28;20117;-78
2023/08/21 03:13:21;;;;;;;6.32;3.92;;;;;;;;;;5026140;28;20480;-77
2023/08/21 03:15:47;;;;;;;5.65;4.20;;;;;;;;;;5009758;28;20061;-77
2023/08/21 03:18:13;;;;;;;5.35;4.30;;;;;;;;;;5029752;28;20037;-77
2023/08/21 03:20:44;;;;;;;6.68;4.18;;;;;;;;;;5010614;28;20420;-77
2023/08/21 03:23:10;;;;;;;6.60;4.28;;;;;;;;;;5027442;28;20181;-77
2023/08/21 03:25:36;;;;;;;7.60;3.78;;;;;;;;;;5029480;28;20144;-77
2023/08/21 03:28:02;;;;;;;5.95;3.10;;;;;;;;;;5032046;28;20899;-77
2023/08/21 03:30:28;;;;;;;2.88;2.08;;;;;;;;;;5029935;28;20227;-77
2023/08/21 03:32:54;;;;;;;4.28;2.70;;;;;;;;;;5009459;28;20040;-78
2023/08/21 03:35:20;;;;;;;4.18;2.90;;;;;;;;;;5012197;28;20057;-77
2023/08/21 03:37:46;;;;;;;5.50;2.90;;;;;;;;;;5030104;28;20429;-77
2023/08/21 03:40:13;;;;;;;6.65;3.05;;;;;;;;;;5011035;28;20534;-77
2023/08/21 03:42:39;;;;;;;9.18;3.65;;;;;;;;;;5011394;28;20073;-77
2023/08/21 03:45:05;;;;;;;6.57;3.00;;;;;;;;;;5010157;28;20044;-78
2023/08/21 03:47:31;;;;;;;5.80;3.85;;;;;;;;;;5008488;28;20501;-77
2023/08/21 03:49:57;;;;;;;4.70;3.90;;;;;;;;;;5006466;28;20078;-77
2023/08/21 03:52:23;;;;;;;6.25;3.72;;;;;;;;;;5007094;28;20157;-77
2023/08/21 03:54:49;;;;;;;5.82;3.60;;;;;;;;;;5016055;28;22068;-77
2023/08/21 03:57:15;;;;;;;25.90;4.47;;;;;;;;;;5013853;28;20098;-77
2023/08/21 03:59:42;;;;;;;10.82;4.20;;;;;;;;;;5010144;28;20103;-75
2023/08/21 04:02:08;;;;;;;11.18;4.13;;;;;;;;;;5028712;28;20032;-77
2023/08/21 04:04:34;;;;;;;8.57;4.57;;;;;;;;;;5006993;28;20049;-76
2023/08/21 04:07:00;;;;;;;6.60;4.10;;;;;;;;;;5014247;28;20547;-76
2023/08/21 04:09:26;;;;;;;10.35;5.10;;;;;;;;;;5014509;28;20090;-76
2023/08/21 04:11:52;;;;;;;8.90;4.72;;;;;;;;;;5030034;28;20045;-76
2023/08/21 04:14:18;;;;;;;16.60;5.22;;;;;;;;;;5014657;28;20045;-75
2023/08/21 04:16:44;;;;;;;11.23;4.32;;;;;;;;;;5015537;28;20049;-76
2023/08/21 04:19:10;;;;;;;10.05;3.70;;;;;;;;;;5014459;28;20051;-77
2023/08/21 04:21:36;;;;;;;6.30;3.45;;;;;;;;;;5012957;28;20125;-77
2023/08/21 04:24:02;;;;;;;7.55;2.97;;;;;;;;;;5017615;28;20045;-77
2023/08/21 04:26:28;;;;;;;6.78;3.30;;;;;;;;;;5029687;28;20075;-77
2023/08/21 04:28:54;;;;;;;3.13;2.45;;;;;;;;;;5031037;28;20033;-76
2023/08/21 04:31:20;;;;;;;2.88;2.20;;;;;;;;;;5011094;28;20041;-76
2023/08/21 04:33:46;;;;;;;6.65;2.47;;;;;;;;;;5002383;28;20041;-74
2023/08/21 04:36:16;;;;;;;28.35;3.33;;;;;;;;;;5029335;28;20053;-74
2023/08/21 04:38:43;;;;;;;23.60;3.53;;;;;;;;;;5017502;28;20124;-75
2023/08/21 04:41:10;;;;;;;10.30;3.42;;;;;;;;;;5041332;28;20146;-74
2023/08/21 04:43:36;;;;;;;6.45;3.85;;;;;;;;;;5017504;28;20168;-74
2023/08/21 04:46:02;;;;;;;5.63;3.55;;;;;;;;;;5030717;28;20076;-74
2023/08/21 04:48:28;;;;;;;35.90;3.67;;;;;;;;;;5031426;28;20699;-74
2023/08/21 04:50:54;;;;;;;31.92;4.07;;;;;;;;;;5027026;28;20248;-75
2023/08/21 04:53:20;;;;;;;20.90;3.30;;;;;;;;;;5014206;28;20045;-75
2023/08/21 04:55:46;;;;;;;4.72;3.00;;;;;;;;;;5014726;28;20049;-75
2023/08/21 04:58:12;;;;;;;6.57;3.80;;;;;;;;;;5017150;28;20044;-75
2023/08/21 05:00:38;;;;;;;8.75;4.13;;;;;;;;;;5013345;28;20191;-75
2023/08/21 05:03:04;;;;;;;5.60;4.25;;;;;;;;;;5019314;28;20156;-75
2023/08/21 05:05:30;;;;;;;8.93;4.43;;;;;;;;;;4999004;28;20056;-74
2023/08/21 05:07:56;;;;;;;9.48;4.88;;;;;;;;;;5031359;28;20091;-76
2023/08/21 05:10:22;;;;;;;6.68;4.22;;;;;;;;;;5032974;28;20067;-75
2023/08/21 05:12:48;;;;;;;7.53;4.05;;;;;;;;;;5012778;28;20048;-74
2023/08/21 05:15:15;;;;;;;9.57;4.13;;;;;;;;;;4999186;28;20076;-75
2023/08/21 05:17:41;;;;;;;9.00;4.75;;;;;;;;;;5016698;28;20037;-75
2023/08/21 05:20:07;;;;;;;9.18;4.95;;;;;;;;;;5015245;28;20189;-75
2023/08/21 05:22:33;;;;;;;11.50;4.93;;;;;;;;;;5013838;28;20052;-75
2023/08/21 05:24:59;;;;;;;8.88;4.50;;;;;;;;;;5017199;28;20043;-75
2023/08/21 05:27:25;;;;;;;7.63;4.47;;;;;;;;;;5038500;28;20504;-75
2023/08/21 05:29:51;;;;;;;8.70;4.57;;;;;;;;;;5017496;28;21019;-75
2023/08/21 05:32:17;;;;;;;10.27;4.32;;;;;;;;;;5037299;28;20724;-75
2023/08/21 05:34:44;;;;;;;7.18;4.30;;;;;;;;;;5002236;28;20045;-75
2023/08/21 05:37:10;;;;;;;8.75;4.90;;;;;;;;;;5019963;28;20045;-75
2023/08/21 05:39:36;;;;;;;8.52;4.88;;;;;;;;;;5033577;28;20048;-77
2023/08/21 05:42:03;;;;;;;10.43;4.90;;;;;;;;;;5016489;28;20063;-77
2023/08/21 05:44:29;;;;;;;10.65;4.85;;;;;;;;;;5019203;28;20716;-77
2023/08/21 05:46:55;;;;;;;9.45;5.43;;;;;;;;;;5017783;28;20040;-79
2023/08/21 05:49:21;;;;;;;10.98;4.90;;;;;;;;;;5016801;28;20041;-80
2023/08/21 05:51:47;;;;;;;9.70;5.05;;;;;;;;;;5016277;28;20041;-79
2023/08/21 05:54:13;;;;;;;8.55;5.18;;;;;;;;;;5020856;28;20159;-79
2023/08/21 05:56:39;;;;;;;9.38;5.28;;;;;;;;;;5021145;28;20045;-76
2023/08/21 05:59:05;;;;;;;8.40;5.30;;;;;;;;;;5018937;28;20044;-76
2023/08/21 06:01:31;;;;;;;9.88;5.07;;;;;;;;;;5029557;28;20053;-76
2023/08/21 06:03:58;;;;;;;9.60;5.03;;;;;;;;;;5036523;28;20041;-76
2023/08/21 06:06:24;;;;;;;10.65;5.50;;;;;;;;;;5004014;28;20045;-76
2023/08/21 06:08:50;;;;;;;8.75;4.97;;;;;;;;;;5038295;28;20056;-77
2023/08/21 06:11:16;;;;;;;9.05;5.38;;;;;;;;;;5002555;28;20548;-77
2023/08/21 06:13:42;;;;;;;11.27;6.00;;;;;;;;;;5023345;28;20127;-77
2023/08/21 06:16:08;;;;;;;10.32;5.82;;;;;;;;;;5018610;28;20049;-77
2023/08/21 06:18:34;;;;;;;14.60;5.97;;;;;;;;;;5010836;28;20553;-77
2023/08/21 06:21:00;;;;;;;10.00;5.97;;;;;;;;;;5038204;28;20106;-77
2023/08/21 06:23:26;;;;;;;10.15;5.80;;;;;;;;;;5036095;28;20044;-76
2023/08/21 06:25:52;;;;;;;15.07;6.40;;;;;;;;;;5018612;28;20319;-77
2023/08/21 06:28:18;;;;;;;13.57;6.30;;;;;;;;;;5014988;28;20048;-77
2023/08/21 06:30:44;;;;;;;10.80;5.90;;;;;;;;;;5017342;28;20538;-77
2023/08/21 06:33:10;;;;;;;13.85;6.68;;;;;;;;;;5015893;28;20052;-77
2023/08/21 06:35:37;;;;;;;11.05;5.18;;;;;;;;;;5017774;28;20051;-77
2023/08/21 06:38:03;;;;;;;14.07;6.78;;;;;;;;;;5018011;28;20658;-77
2023/08/21 06:40:29;;;;;;;15.20;5.63;;;;;;;;;;5016645;28;20044;-77
2023/08/21 06:42:56;;;;;;;12.07;6.05;;;;;;;;;;5000260;28;20127;-77
2023/08/21 06:45:22;;;;;;;43.90;7.30;;;;;;;;;;4998247;28;20044;-77
2023/08/21 06:47:50;;;;;;;18.88;6.45;;;;;;;;;;5017798;28;20049;-77
2023/08/21 06:50:16;;;;;;;17.83;5.35;;;;;;;;;;5015725;28;20056;-77
2023/08/21 06:52:43;;;;;;;14.25;6.80;;;;;;;;;;5011766;28;20656;-77
2023/08/21 06:55:09;;;;;;;11.85;5.05;;;;;;;;;;5005663;28;20040;-76
2023/08/21 06:57:37;;;;;;;15.32;5.30;;;;;;;;;;5032076;28;20603;-77
2023/08/21 07:00:04;;;;;;;8.00;4.32;;;;;;;;;;5033895;28;20420;-77
2023/08/21 07:02:31;;;;;;;8.77;4.40;;;;;;;;;;5017503;28;20049;-76
2023/08/21 07:04:57;;;;;;;6.93;3.47;;;;;;;;;;5016850;28;20041;-76
2023/08/21 07:07:24;;;;;;;9.57;3.30;;;;;;;;;;5016231;28;20683;-75
2023/08/21 07:09:51;;;;;;;9.15;3.10;;;;;;;;;;5037147;28;20083;-76
2023/08/21 07:12:17;;;;;;;8.80;3.28;;;;;;;;;;5037470;28;20047;-77
2023/08/21 07:14:43;;;;;;;10.48;3.22;;;;;;;;;;5038265;28;20552;-77
2023/08/21 07:17:09;;;;;;;9.80;2.83;;;;;;;;;;5018527;28;20048;-77
2023/08/21 07:19:35;;;;;;;9.73;3.22;;;;;;;;;;5020860;28;20416;-77
2023/08/21 07:22:01;;;;;;;8.10;2.88;;;;;;;;;;5007549;28;23222;-77
2023/08/21 07:24:27;;;;;;;8.45;2.80;;;;;;;;;;5035156;28;20044;-77
2023/08/21 07:26:53;;;;;;;7.97;2.97;;;;;;;;;;5039882;28;20114;-77
2023/08/21 07:29:19;;;;;;;9.63;2.72;;;;;;;;;;5037147;28;20072;-77
2023/08/21 07:31:45;;;;;;;7.90;2.28;;;;;;;;;;5003626;28;20093;-77
2023/08/21 07:34:11;;;;;;;3.40;1.45;;;;;;;;;;5035554;28;20052;-77
2023/08/21 07:36:37;;;;;;;16.13;2.63;;;;;;;;;;5034345;28;20677;-77
2023/08/21 07:39:04;;;;;;;6.85;2.33;;;;;;;;;;5017139;28;20735;-76
2023/08/21 07:41:30;;;;;;;4.85;1.40;;;;;;;;;;5020696;28;20645;-76
2023/08/21 07:43:56;;;;;;;5.53;1.50;;;;;;;;;;5034246;28;20443;-77
2023/08/21 07:46:22;;;;;;;5.78;1.27;;;;;;;;;;5017553;28;20040;-76
2023/08/21 07:48:50;;;;;;;4.10;1.35;;;;;;;;;;5016662;28;20520;-76
2023/08/21 07:51:16;;;;;;;5.25;1.50;;;;;;;;;;5015768;28;20584;-76
2023/08/21 07:53:42;;;;;;;8.18;2.42;;;;;;;;;;5018088;28;20067;-76
2023/08/21 07:56:08;;;;;;;3.22;1.40;;;;;;;;;;5014744;28;20563;-77
2023/08/21 07:58:34;;;;;;;8.80;1.98;;;;;;;;;;5038959;28;20139;-76
2023/08/21 08:01:01;;;;;;;5.63;1.60;;;;;;;;;;5018459;28;20063;-76
2023/08/21 08:03:27;;;;;;;5.07;1.50;;;;;;;;;;5019573;28;20401;-76
2023/08/21 08:05:53;;;;;;;4.75;1.73;;;;;;;;;;5014320;28;20052;-76
2023/08/21 08:08:19;;;;;;;4.80;1.60;;;;;;;;;;5034677;28;20048;-76
2023/08/21 08:10:45;;;;;;;4.25;1.60;;;;;;;;;;5023890;28;20037;-76
2023/08/21 08:13:11;;;;;;;3.83;1.38;;;;;;;;;;5018898;28;20041;-76
2023/08/21 08:15:38;;;;;;;6.75;1.90;;;;;;;;;;5020784;28;22296;-76
2023/08/21 08:18:07;;;;;;;7.25;1.50;;;;;;;;;;5020310;28;20103;-76
2023/08/21 08:20:33;;;;;;;7.60;1.60;;;;;;;;;;5019076;28;20143;-76
2023/08/21 08:22:59;;;;;;;4.07;1.40;;;;;;;;;;5021752;28;20056;-76
2023/08/21 08:25:25;;;;;;;2.95;1.02;;;;;;;;;;5003627;28;20036;-76
2023/08/21 08:27:52;;;;;;;4.35;1.35;;;;;;;;;;5028916;28;20049;-75
2023/08/21 08:30:18;;;;;;;5.03;1.30;;;;;;;;;;5030506;28;20040;-76
2023/08/21 08:32:44;;;;;;;4.55;1.90;;;;;;;;;;5021305;28;20049;-76
2023/08/21 08:35:13;;;;;;;6.50;1.75;;;;;;;;;;5021818;28;20056;-76
2023/08/21 08:37:39;;;;;;;3.78;1.27;;;;;;;;;;5038431;28;20076;-76
2023/08/21 08:40:06;;;;;;;5.00;2.13;;;;;;;;;;5040240;28;20044;-75
2023/08/21 08:42:32;;;;;;;5.28;1.77;;;;;;;;;;5038003;28;20040;-76
2023/08/21 08:44:59;;;;;;;4.78;1.40;;;;;;;;;;5042787;28;20028;-76
2023/08/21 08:47:28;;;;;;;4.45;1.42;;;;;;;;;;5022931;28;20048;-76
2023/08/21 08:49:55;;;;;;;6.57;1.17;;;;;;;;;;4996337;28;20051;-76
2023/08/21 08:52:23;;;;;;;6.38;1.63;;;;;;;;;;5040800;28;20044;-76
2023/08/21 08:54:49;;;;;;;5.32;1.30;;;;;;;;;;5024863;28;20044;-75
2023/08/21 08:57:15;;;;;;;4.25;1.63;;;;;;;;;;5015276;28;20048;-74
2023/08/21 08:59:42;;;;;;;5.10;1.88;;;;;;;;;;5023900;28;20060;-76
2023/08/21 09:02:08;;;;;;;6.03;2.17;;;;;;;;;;5040522;28;20500;-76
2023/08/21 09:04:34;;;;;;;5.15;1.30;;;;;;;;;;5024360;28;20130;-76
2023/08/21 09:07:07;;;;;;;2.88;0.90;;;;;;;;;;5007456;28;20068;-76
2023/08/21 09:09:46;;;;;;;3.42;1.65;;;;;;;;;;5041196;28;20043;-76
2023/08/21 09:12:13;;;;;;;3.92;1.60;;;;;;;;;;5023296;28;20139;-76
2023/08/21 09:14:42;;;;;;;4.82;1.65;;;;;;;;;;5041974;28;20143;-75
2023/08/21 09:17:08;;;;;;;4.22;1.75;;;;;;;;;;5041936;28;20662;-73
2023/08/21 09:19:35;;;;;;;3.67;1.45;;;;;;;;;;5022841;28;20080;-73
2023/08/21 09:22:12;;;;;;;5.97;1.50;;;23.10;99.90;;;;;;5023310;28;20049;-74
2023/08/21 09:24:39;;;;;;;8.23;1.52;;;;;;;;;;5021847;28;20468;-74
2023/08/21 09:27:13;;;;;;;6.63;1.40;;;;;;;;;;5040984;28;20048;-74
2023/08/21 09:29:42;;;;;;;4.30;1.20;;;;;;;;;;5023986;28;20041;-74
2023/08/21 09:32:08;;;;;;;4.82;1.48;;;;;;;;;;5023446;28;20053;-74
2023/08/21 09:34:36;;;;;;;2.47;1.17;;;;;;;;;;5024707;28;20090;-74
2023/08/21 09:37:05;;;;;;;6.63;1.50;;;;;;;;;;5021706;28;20064;-73
2023/08/21 09:39:35;;;;;;;6.15;1.40;;;;;;;;;;5023165;28;20828;-74
2023/08/21 09:42:01;;;;;;;12.52;2.13;;;;;;;;;;5041318;28;20052;-74
2023/08/21 09:44:28;;;;;;;3.92;1.20;;;;;;;;;;5007959;28;20045;-74
2023/08/21 09:46:54;;;;;;;6.43;1.10;;;;;;;;;;5023290;28;20041;-75
2023/08/21 09:49:21;;;;;;;4.00;1.17;;;;;;;;;;5021106;28;20040;-74
2023/08/21 09:51:47;;;;;;;6.22;2.25;;;;;;;;;;5040159;28;20060;-74
2023/08/21 09:54:14;;;;;;;4.30;1.42;;;;;;;;;;5038719;28;20088;-74
2023/08/21 09:56:40;;;;;;;5.28;1.20;;;;;;;;;;5023307;28;20446;-75
2023/08/21 09:59:06;;;;;;;5.50;1.20;;;;;;;;;;5025770;28;20049;-74
2023/08/21 10:01:34;;;;;;;6.95;1.30;;;;;;;;;;5040967;28;20172;-74
2023/08/21 10:04:02;;;;;;;3.38;1.10;;;;;;;;;;5021833;28;20052;-74
2023/08/21 10:06:29;;;;;;;6.50;1.50;;;;;;;;;;5020304;28;20202;-74
2023/08/21 10:08:57;;;;;;;3.75;1.17;;;;;;;;;;5038613;28;20052;-74
2023/08/21 10:11:23;;;;;;;2.75;1.10;;;;;;;;;;5019315;28;20049;-74
2023/08/21 10:13:51;;;;;;;2.90;1.35;;;;;;;;;;5020936;28;20118;-74
2023/08/21 10:16:17;;;;;;;3.42;0.90;;;;;;;;;;5001696;28;20053;-74
2023/08/21 10:18:46;;;;;;;4.65;1.23;;;;;;;;;;5004193;28;20099;-74
2023/08/21 10:21:17;;;;;;;3.13;0.90;;;;;;;;;;5022882;28;21719;-77
2023/08/21 10:23:47;;;;;;;3.80;1.33;;;;;;;;;;5022398;28;20534;-78
2023/08/21 10:26:13;;;;;;;5.82;1.10;;;;;;;;;;5019081;28;20094;-78
2023/08/21 10:28:49;;;;;;;4.20;1.25;;;;;;;;;;5004399;28;20078;-78
2023/08/21 10:31:28;;;;;;;3.30;1.10;;;;;;;;;;5005992;28;20055;-79
2023/08/21 10:33:55;;;;;;;4.50;1.10;;;;;;;;;;5019269;28;20051;-78
2023/08/21 10:36:37;;;;;;;2.75;1.00;;;;;;;;;;5020748;28;20041;-78
2023/08/21 10:39:04;;;;;;;6.40;1.95;;;;;;;;;;5021335;28;20099;-79
2023/08/21 10:41:30;;;;;;;5.10;1.30;;;;;;;;;;5020244;28;20076;-78
2023/08/21 10:43:57;;;;;;;3.20;1.00;;;;;;;;;;5020746;28;20480;-79
2023/08/21 10:46:23;;;;;;;3.95;1.10;;;;;;;;;;5018623;28;20090;-77
2023/08/21 10:48:49;;;;;;;5.85;0.95;;;;;;;;;;5019590;28;20216;-78
2023/08/21 10:51:17;;;;;;;5.00;1.27;;;;;;;;;;5013040;28;20045;-77
2023/08/21 10:53:43;;;;;;;2.97;1.15;;;;;;;;;;5036015;28;20093;-78
2023/08/21 10:56:09;;;;;;;3.63;1.02;;;;;;;;;;5040189;28;20064;-77
2023/08/21 10:58:51;;;;;;;4.78;1.13;;;;;;;;;;5022638;28;20040;-77
2023/08/21 11:01:17;;;;;;;6.82;1.17;;;;;;;;;;5006359;28;20425;-78
2023/08/21 11:03:52;;;;;;;5.88;1.50;;;;;;;;;;5021720;28;20071;-77
2023/08/21 11:06:19;;;;;;;3.85;1.27;;;;;;;;;;5013522;28;20051;-78
2023/08/21 11:08:45;;;;;;;4.72;1.25;;;;;;;;;;5018906;28;20040;-78
2023/08/21 11:11:11;;;;;;;3.80;1.00;;;;;;;;;;5038483;28;20046;-77
2023/08/21 11:13:37;;;;;;;4.82;1.20;;;;;;;;;;5021272;28;20052;-78
2023/08/21 11:16:05;;;;;;;3.20;1.13;;;;;;;;;;5020315;28;20055;-77
2023/08/21 11:18:31;;;;;;;4.40;1.15;;;;;;;;;;5006232;28;20055;-79
2023/08/21 11:21:11;;;;;;;1.80;0.90;;;;;;;;;;5021815;28;20054;-78
2023/08/21 11:23:38;;;;;;;2.80;0.80;;;;;;;;;;5020604;28;20075;-78
2023/08/21 11:26:04;;;;;;;3.13;1.17;;;;;;;;;;5039627;28;20111;-78
2023/08/21 11:28:31;;;;;;;4.35;1.15;;;;;;;;;;5020988;28;20167;-78
2023/08/21 11:30:58;;;;;;;4.30;0.77;;;;;;;;;;5023126;28;20049;-78
2023/08/21 11:33:24;;;;;;;4.78;1.08;;;;;;;;;;5038962;28;20400;-79
2023/08/21 11:35:53;;;;;;;3.75;1.00;;;;;;;;;;5020766;28;20037;-78
2023/08/21 11:38:22;;;;;;;3.67;1.23;;;;;;;;;;5038714;28;20048;-80
2023/08/21 11:40:55;;;;;;;4.65;1.20;;;;;;;;;;5001582;28;21952;-79
2023/08/21 11:43:21;;;;;;;;;;;;;;;;;;5024490;28;20041;-79
2023/08/21 11:45:47;;;;;;;3.35;1.00;;;;;;;;;;5019218;28;22178;-78
2023/08/21 11:48:14;;;;;;;3.17;1.00;;;;;;;;;;5040470;28;20076;-77
2023/08/21 11:50:40;;;;;;;5.60;1.58;;;;;;;;;;5020148;28;20086;-74
2023/08/21 11:53:06;;;;;;;2.00;0.73;;;;;;;;;;5038688;28;20039;-78
2023/08/21 11:55:32;;;;;;;4.65;1.08;;;;;;;;;;5004535;28;21979;-79
2023/08/21 11:58:02;;;;;;;2.85;0.90;;;;;;;;;;5021429;28;20049;-79
2023/08/21 12:00:30;;;;;;;4.93;1.42;;;;;;;;;;5021100;28;20057;-78
2023/08/21 12:02:56;;;;;;;2.80;0.95;;;;;;;;;;5021099;28;20098;-79
2023/08/21 12:05:23;;;;;;;3.97;1.00;;;;;;;;;;5003513;28;20051;-78
2023/08/21 12:07:49;;;;;;;3.33;0.95;;;;;;;;;;5007545;28;20049;-81
2023/08/21 12:10:15;;;;;;;6.68;1.00;;;;;;;;;;5010969;28;20045;-78
2023/08/21 12:12:41;;;;;;;5.35;1.05;;;;;;;;;;5039929;28;20044;-80
2023/08/21 12:15:07;;;;;;;11.93;1.35;;;;;;;;;;5021015;28;20036;-79
2023/08/21 12:17:33;;;;;;;5.43;0.73;;;;;;;;;;5039176;28;20500;-78
2023/08/21 12:20:00;;;;;;;3.22;0.95;;;;;;;;;;5021186;28;21864;-78
2023/08/21 12:22:26;;;;;;;6.28;1.10;;;;;;;;;;5021381;28;20040;-78
2023/08/21 12:24:52;;;;;;;3.00;0.90;;;;;;;;;;5020519;28;20049;-82
2023/08/21 12:27:20;;;;;;;4.75;1.23;;;;;;;;;;5021840;28;20036;-78
2023/08/21 12:29:46;;;;;;;8.05;1.20;;;;;;;;;;5028972;28;20064;-80
2023/08/21 12:32:12;;;;;;;6.50;1.25;;;;;;;;;;5020620;28;20055;-79
2023/08/21 12:34:38;;;;;;;5.97;1.30;;;;;;;;;;5020648;28;20044;-78
2023/08/21 12:37:04;;;;;;;2.83;1.05;;;;;;;;;;5006133;28;20052;-79
2023/08/21 12:39:30;;;;;;;4.00;0.95;;;;;;;;;;5019197;28;20068;-79
2023/08/21 12:41:56;;;;;;;3.78;1.20;;;;;;;;;;5019183;28;20068;-77
2023/08/21 12:44:25;;;;;;;3.97;1.08;;;;;;;;;;5038596;28;20217;-77
2023/08/21 12:46:51;;;;;;;2.22;1.20;;;;;;;;;;5020948;28;20045;-78
2023/08/21 12:49:17;;;;;;;3.15;0.85;;;;;;;;;;5037499;28;20405;-78
2023/08/21 12:51:43;;;;;;;4.15;1.27;;;;;;;;;;5027569;28;20090;-77
2023/08/21 12:54:09;;;;;;;3.20;1.20;;;;;;;;;;5038923;28;20073;-77
2023/08/21 12:56:35;;;;;;;3.50;1.33;;;;;;;;;;5018835;28;20174;-78
2023/08/21 12:59:02;;;;;;;3.30;1.15;;;;;;;;;;5038094;28;22044;-78
2023/08/21 13:01:29;;;;;;;3.42;1.13;;;;;;;;;;5042538;28;20052;-78
2023/08/21 13:03:55;;;;;;;5.25;1.38;;;;;;;;;;5042401;28;20048;-78
2023/08/21 13:06:21;;;;;;;2.60;0.90;;;;;;;;;;5024173;28;20048;-78
2023/08/21 13:08:48;;;;;;;2.72;1.17;;;;;;;;;;5021832;28;20083;-78
2023/08/21 13:11:14;;;;;;;2.70;1.00;;;;;;;;;;5027851;28;20155;-78
2023/08/21 13:13:40;;;;;;;4.53;1.10;;;;;;;;;;5013362;28;20064;-78
2023/08/21 13:16:06;;;;;;;3.08;1.00;;;;;;;;;;5042330;28;20041;-78
2023/08/21 13:18:32;;;;;;;1.83;1.08;;;;;;;;;;5043468;28;20039;-78
2023/08/21 13:20:58;;;;;;;4.85;1.30;;;;;;;;;;5041599;28;20118;-78
2023/08/21 13:23:24;;;;;;;3.65;1.65;;;;;;;;;;5008583;28;20041;-78
2023/08/21 13:25:50;;;;;;;2.28;1.00;;;;;;;;;;5040566;28;20204;-78
2023/08/21 13:28:16;;;;;;;5.47;1.33;;;;;;;;;;5020595;28;20041;-78
2023/08/21 13:30:42;;;;;;;3.17;1.25;;;;;;;;;;5018332;28;20078;-78
2023/08/21 13:33:08;;;;;;;5.03;1.48;;;;;;;;;;5018601;28;20048;-78
2023/08/21 13:35:34;;;;;;;3.30;1.23;;;;;;;;;;5019905;28;20124;-78
2023/08/21 13:38:01;;;;;;;3.72;0.98;;;;;;;;;;4989546;28;20048;-81
2023/08/21 13:40:27;;;;;;;6.18;1.35;;;;;;;;;;5038288;28;20214;-82
2023/08/21 13:42:53;;;;;;;4.47;1.15;;;;;;;;;;5020994;28;20048;-82
2023/08/21 13:45:19;;;;;;;4.28;0.98;;;;;;;;;;5062715;28;20029;-82
2023/08/21 13:47:47;;;;;;;3.53;1.10;;;;;;;;;;5042951;28;20064;-81
2023/08/21 13:50:14;;;;;;;4.25;1.20;;;32.20;99.90;;;;;;5028337;28;20033;-82
2023/08/21 13:52:40;;;;;;;5.93;1.30;;;;;;;;;;5043855;28;20051;-81
2023/08/21 13:55:07;;;;;;;4.93;1.50;;;;;;;;;;5027737;28;20036;-82
2023/08/21 13:57:33;;;;;;;6.13;1.55;;;;;;;;;;5042843;28;20058;-83
2023/08/21 14:00:07;;;;;;;6.57;1.90;;;;;;;;;;5026009;28;20048;-81
2023/08/21 14:02:33;;;;;;;6.53;1.92;;;;;;;;;;5060131;28;20836;-81
2023/08/21 14:04:59;;;;;;;5.97;2.33;;;;;;;;;;5041409;28;20139;-82
2023/08/21 14:07:25;;;;;;;5.85;2.05;;;;;;;;;;5043428;28;20204;-82
2023/08/21 14:09:51;;;;;;;5.43;1.65;;;;;;;;;;5042663;28;20041;-82
2023/08/21 14:12:17;;;;;;;6.72;2.47;;;;;;;;;;5026295;28;21124;-82
2023/08/21 14:14:43;;;;;;;6.00;2.17;;;;;;;;;;5059549;28;20098;-82
2023/08/21 14:17:10;;;;;;;6.78;2.55;;;;;;;;;;5043554;28;20067;-82
2023/08/21 14:19:36;;;;;;;10.02;2.22;;;;;;;;;;5041364;28;20055;-81
2023/08/21 14:22:03;;;;;;;10.73;2.47;;;;;;;;;;5041711;28;20072;-82
2023/08/21 14:24:29;;;;;;;7.55;2.15;;;;;;;;;;5023912;28;20059;-82
2023/08/21 14:26:55;;;;;;;12.63;2.78;;;;;;;;;;5042848;28;20064;-83
2023/08/21 14:29:21;;;;;;;8.43;2.22;;;;;;;;;;5061242;28;20135;-82
2023/08/21 14:31:48;;;;;;;5.35;2.20;;;;;;;;;;5040889;28;20041;-82
2023/08/21 14:34:15;;;;;;;6.93;2.65;;;;;;;;;;5042111;28;20057;-82
2023/08/21 14:36:42;;;;;;;7.25;2.70;;;;;;;;;;5042062;28;20070;-83